createdAt,value
2022-10-18T00:01:14.599Z,11.97
2022-10-18T00:06:14.796Z,12.12
2022-10-18T00:08:41.456Z,12.07
2022-10-18T00:11:08.367Z,12.13
2022-10-18T00:13:35.753Z,12.34
2022-10-18T00:16:04.749Z,12.28
2022-10-18T00:18:36.193Z,12.43
2022-10-18T00:21:06.483Z,12.43
2022-10-18T00:23:36.086Z,12.26
2022-10-18T00:26:19.800Z,12.30
2022-10-18T00:28:49.980Z,12.08
2022-10-18T00:31:20.855Z,11.82
2022-10-18T00:33:50.913Z,11.65
2022-10-18T00:36:18.237Z,11.62
2022-10-18T00:38:48.303Z,12.01
2022-10-18T00:41:20.422Z,12.10
2022-10-18T00:44:02.349Z,11.85
2022-10-18T00:46:31.440Z,11.80
2022-10-18T00:49:01.794Z,11.97
2022-10-18T00:51:50.838Z,12.08
2022-10-18T00:54:19.356Z,11.79
2022-10-18T00:56:46.377Z,11.91
2022-10-18T00:59:18.089Z,11.72
2022-10-18T01:01:47.681Z,11.75
2022-10-18T01:04:21.811Z,11.88
2022-10-18T01:07:03.676Z,11.55
2022-10-18T01:09:42.300Z,11.44
2022-10-18T01:12:45.629Z,11.35
2022-10-18T01:15:27.544Z,11.59
2022-10-18T01:18:12.006Z,11.83
2022-10-18T01:21:10.815Z,11.82
2022-10-18T01:23:58.516Z,11.62
2022-10-18T01:26:40.252Z,11.33
2022-10-18T01:29:28.582Z,11.41
2022-10-18T01:32:02.529Z,11.48
2022-10-18T01:34:35.243Z,11.48
2022-10-18T01:37:09.371Z,11.67
2022-10-18T01:39:40.046Z,11.75
2022-10-18T01:42:11.547Z,11.59
2022-10-18T01:44:41.000Z,11.54
2022-10-18T01:47:13.084Z,11.65
2022-10-18T01:49:44.446Z,11.72
2022-10-18T01:52:15.641Z,11.62
2022-10-18T01:54:50.836Z,11.71
2022-10-18T01:57:32.459Z,11.53
2022-10-18T02:00:05.958Z,11.71
2022-10-18T02:02:35.220Z,11.81
2022-10-18T02:05:20.304Z,11.80
2022-10-18T02:07:55.437Z,11.81
2022-10-18T02:10:55.645Z,11.77
2022-10-18T02:13:29.743Z,11.86
2022-10-18T02:16:05.131Z,11.74
2022-10-18T02:18:40.271Z,11.85
2022-10-18T02:21:13.027Z,11.80
2022-10-18T02:23:42.783Z,11.83
2022-10-18T02:26:09.286Z,11.78
2022-10-18T02:28:38.524Z,11.70
2022-10-18T02:31:23.169Z,11.32
2022-10-18T02:33:55.928Z,11.35
2022-10-18T02:36:27.807Z,11.49
2022-10-18T02:39:04.691Z,11.52
2022-10-18T02:41:34.785Z,11.35
2022-10-18T02:44:03.640Z,11.21
2022-10-18T02:46:30.177Z,10.90
2022-10-18T02:48:56.682Z,11.17
2022-10-18T02:51:23.803Z,10.97
2022-10-18T02:53:52.895Z,11.02
2022-10-18T02:56:19.344Z,11.13
2022-10-18T02:58:47.987Z,11.15
2022-10-18T03:01:14.525Z,11.13
2022-10-18T03:03:41.134Z,11.01
2022-10-18T03:06:07.680Z,11.13
2022-10-18T03:08:36.865Z,11.14
2022-10-18T03:11:05.650Z,11.17
2022-10-18T03:13:34.704Z,11.18
2022-10-18T03:16:01.258Z,11.22
2022-10-18T03:18:30.414Z,11.04
2022-10-18T03:21:07.231Z,11.04
2022-10-18T03:23:35.121Z,11.01
2022-10-18T03:26:02.009Z,10.99
2022-10-18T03:28:31.553Z,11.21
2022-10-18T03:31:02.551Z,11.13
2022-10-18T03:33:32.591Z,10.87
2022-10-18T03:36:01.424Z,11.20
2022-10-18T03:38:27.998Z,11.25
2022-10-18T03:40:54.562Z,11.32
2022-10-18T03:43:21.296Z,11.29
2022-10-18T03:45:47.995Z,11.16
2022-10-18T03:48:14.622Z,11.01
2022-10-18T03:50:41.221Z,11.14
2022-10-18T03:53:10.020Z,11.14
2022-10-18T03:55:37.475Z,11.15
2022-10-18T03:58:04.556Z,11.16
2022-10-18T04:00:34.030Z,11.00
2022-10-18T04:03:00.659Z,10.84
2022-10-18T04:05:31.972Z,10.90
2022-10-18T04:08:00.807Z,10.84
2022-10-18T04:10:27.373Z,10.78
2022-10-18T04:12:54.318Z,10.78
2022-10-18T04:15:21.034Z,10.94
2022-10-18T04:17:47.617Z,10.78
2022-10-18T04:20:16.613Z,10.41
2022-10-18T04:22:43.155Z,10.28
2022-10-18T04:25:09.671Z,10.63
2022-10-18T04:27:37.402Z,10.68
2022-10-18T04:30:06.621Z,10.81
2022-10-18T04:32:35.558Z,11.07
2022-10-18T04:35:06.160Z,11.09
2022-10-18T04:37:33.685Z,11.03
2022-10-18T04:40:00.504Z,11.19
2022-10-18T04:42:27.062Z,11.19
2022-10-18T04:44:53.659Z,10.84
2022-10-18T04:47:20.399Z,10.90
2022-10-18T04:49:47.050Z,10.79
2022-10-18T04:52:13.627Z,10.86
2022-10-18T04:54:40.159Z,10.93
2022-10-18T04:57:06.689Z,10.88
2022-10-18T04:59:37.213Z,10.53
2022-10-18T05:02:06.926Z,10.34
2022-10-18T05:04:33.606Z,10.61
2022-10-18T05:07:00.152Z,10.88
2022-10-18T05:09:29.569Z,11.19
2022-10-18T05:11:56.084Z,11.11
2022-10-18T05:14:22.631Z,10.82
2022-10-18T05:16:51.862Z,11.34
2022-10-18T05:19:18.432Z,10.98
2022-10-18T05:21:44.979Z,10.69
2022-10-18T05:24:12.249Z,11.01
2022-10-18T05:26:41.171Z,10.79
2022-10-18T05:29:10.451Z,10.68
2022-10-18T05:31:39.722Z,10.54
2022-10-18T05:34:08.749Z,10.83
2022-10-18T05:36:37.491Z,10.88
2022-10-18T05:39:05.285Z,10.89
2022-10-18T05:41:34.675Z,10.90
2022-10-18T05:44:05.585Z,10.97
2022-10-18T05:46:34.797Z,10.87
2022-10-18T05:49:01.432Z,11.02
2022-10-18T05:51:30.175Z,10.98
2022-10-18T05:53:56.771Z,11.00
2022-10-18T05:56:23.266Z,11.01
2022-10-18T05:58:51.665Z,11.16
2022-10-18T06:01:21.686Z,11.33
2022-10-18T06:03:50.889Z,11.43
2022-10-18T06:06:20.484Z,11.54
2022-10-18T06:08:50.234Z,11.54
2022-10-18T06:11:21.482Z,11.45
2022-10-18T06:13:49.864Z,11.52
2022-10-18T06:16:18.595Z,11.55
2022-10-18T06:18:54.224Z,11.68
2022-10-18T06:21:21.783Z,11.68
2022-10-18T06:23:53.212Z,11.78
2022-10-18T06:26:20.421Z,11.72
2022-10-18T06:28:52.230Z,11.75
2022-10-18T06:31:22.511Z,12.99
2022-10-18T06:33:49.360Z,14.03
2022-10-18T06:36:24.446Z,13.68
2022-10-18T06:38:51.527Z,13.52
2022-10-18T06:41:19.224Z,13.50
2022-10-18T06:43:57.731Z,13.39
2022-10-18T06:46:29.017Z,13.31
2022-10-18T06:48:55.568Z,13.31
2022-10-18T06:51:22.041Z,13.33
2022-10-18T06:54:05.941Z,13.34
2022-10-18T06:56:38.359Z,13.29
2022-10-18T06:59:09.695Z,13.32
2022-10-18T07:01:36.498Z,13.22
2022-10-18T07:04:03.277Z,13.06
2022-10-18T07:06:29.815Z,12.92
2022-10-18T07:08:57.133Z,13.15
2022-10-18T07:11:26.471Z,13.29
2022-10-18T07:14:02.960Z,13.44
2022-10-18T07:16:30.107Z,13.41
2022-10-18T07:18:56.819Z,13.25
2022-10-18T07:21:27.581Z,13.12
2022-10-18T07:23:54.584Z,13.29
2022-10-18T07:26:24.580Z,13.50
2022-10-18T07:28:55.308Z,13.45
2022-10-18T07:31:25.036Z,13.42
2022-10-18T07:33:52.251Z,13.55
2022-10-18T07:36:19.225Z,13.54
2022-10-18T07:38:48.032Z,13.61
2022-10-18T07:41:17.452Z,13.58
2022-10-18T07:43:50.749Z,13.59
2022-10-18T07:46:20.504Z,13.36
2022-10-18T07:48:47.642Z,13.36
2022-10-18T07:51:20.444Z,13.34
2022-10-18T07:53:47.455Z,13.62
2022-10-18T07:56:16.590Z,13.81
2022-10-18T07:58:53.192Z,13.65
2022-10-18T08:01:21.450Z,13.85
2022-10-18T08:03:53.334Z,13.62
2022-10-18T08:06:21.173Z,13.74
2022-10-18T08:08:49.967Z,13.67
2022-10-18T08:11:25.255Z,13.67
2022-10-18T08:13:53.777Z,13.89
2022-10-18T08:16:23.181Z,14.11
2022-10-18T08:18:54.451Z,13.89
2022-10-18T08:21:23.590Z,14.36
2022-10-18T08:23:53.897Z,14.47
2022-10-18T08:26:21.857Z,14.72
2022-10-18T08:28:54.023Z,14.66
2022-10-18T08:31:25.581Z,14.50
2022-10-18T08:33:55.089Z,14.51
2022-10-18T08:36:21.617Z,14.89
2022-10-18T08:38:49.350Z,14.74
2022-10-18T08:41:33.859Z,14.68
2022-10-18T08:44:18.660Z,14.84
2022-10-18T08:46:49.907Z,15.06
2022-10-18T08:49:28.451Z,15.34
2022-10-18T08:51:56.901Z,15.35
2022-10-18T08:54:44.545Z,15.48
2022-10-18T08:57:18.096Z,15.55
2022-10-18T08:59:44.705Z,15.58
2022-10-18T09:02:26.316Z,15.67
2022-10-18T09:05:36.825Z,15.89
2022-10-18T09:08:41.287Z,16.08
2022-10-18T09:11:32.206Z,16.59
2022-10-18T09:14:14.923Z,16.57
2022-10-18T09:17:02.596Z,16.75
2022-10-18T09:19:57.827Z,16.73
2022-10-18T09:22:37.723Z,16.77
2022-10-18T09:25:17.246Z,16.81
2022-10-18T09:28:06.361Z,16.87
2022-10-18T09:30:53.034Z,17.02
2022-10-18T09:33:40.639Z,17.01
2022-10-18T09:36:14.933Z,17.20
2022-10-18T09:38:49.433Z,17.35
2022-10-18T09:41:25.114Z,17.25
2022-10-18T09:44:00.687Z,17.39
2022-10-18T09:46:36.295Z,17.56
2022-10-18T09:49:26.175Z,17.75
2022-10-18T09:51:54.285Z,17.69
2022-10-18T09:54:35.095Z,17.93
2022-10-18T09:57:20.955Z,18.13
2022-10-18T09:59:49.403Z,18.07
2022-10-18T10:02:18.812Z,18.16
2022-10-18T10:04:45.466Z,18.20
2022-10-18T10:07:19.217Z,18.25
2022-10-18T10:09:56.958Z,18.33
2022-10-18T10:12:40.290Z,18.57
2022-10-18T10:15:31.232Z,18.66
2022-10-18T10:18:23.013Z,18.71
2022-10-18T10:20:53.696Z,18.93
2022-10-18T10:23:30.853Z,19.03
2022-10-18T10:26:01.749Z,19.05
2022-10-18T10:28:46.351Z,19.13
2022-10-18T10:31:26.332Z,19.05
2022-10-18T10:34:00.920Z,19.08
2022-10-18T10:36:31.262Z,19.14
2022-10-18T10:39:24.221Z,19.04
2022-10-18T10:41:56.322Z,19.09
2022-10-18T10:44:26.146Z,19.35
2022-10-18T10:47:02.460Z,19.38
2022-10-18T10:49:40.374Z,19.39
2022-10-18T10:52:26.844Z,19.67
2022-10-18T10:55:16.997Z,19.68
2022-10-18T10:57:55.221Z,19.92
2022-10-18T11:03:33.364Z,19.93
2022-10-18T11:06:01.018Z,19.94
2022-10-18T11:08:33.195Z,19.97
2022-10-18T11:11:27.386Z,20.07
2022-10-18T11:14:13.559Z,20.01
2022-10-18T11:17:26.380Z,20.10
2022-10-18T11:20:18.887Z,20.11
2022-10-18T11:23:18.009Z,20.33
2022-10-18T11:26:03.076Z,20.38
2022-10-18T11:28:54.188Z,20.50
2022-10-18T11:31:33.020Z,20.32
2022-10-18T11:34:14.819Z,20.49
2022-10-18T11:37:39.532Z,20.44
2022-10-18T11:40:05.621Z,20.47
2022-10-18T11:42:59.136Z,20.47
2022-10-18T11:45:34.755Z,20.53
2022-10-18T11:48:36.466Z,20.56
2022-10-18T11:51:56.076Z,20.70
2022-10-18T11:54:50.314Z,20.47
2022-10-18T11:57:41.744Z,20.69
2022-10-18T12:00:19.767Z,20.79
2022-10-18T12:03:01.359Z,20.86
2022-10-18T12:05:29.671Z,20.80
2022-10-18T12:08:07.457Z,20.77
2022-10-18T12:10:52.849Z,20.86
2022-10-18T12:13:45.762Z,20.89
2022-10-18T12:16:15.136Z,20.89
2022-10-18T12:18:49.741Z,20.86
2022-10-18T12:21:24.562Z,20.71
2022-10-18T12:24:01.071Z,20.76
2022-10-18T12:26:34.346Z,20.66
2022-10-18T12:29:09.977Z,20.74
2022-10-18T12:31:53.633Z,20.58
2022-10-18T12:34:23.082Z,20.73
2022-10-18T12:37:16.502Z,20.77
2022-10-18T12:40:08.638Z,20.71
2022-10-18T12:42:42.863Z,20.59
2022-10-18T12:45:26.262Z,20.47
2022-10-18T12:47:53.589Z,20.42
2022-10-18T12:50:23.156Z,20.59
2022-10-18T12:53:02.167Z,20.45
2022-10-18T12:55:36.957Z,20.47
2022-10-18T12:58:07.824Z,20.24
2022-10-18T13:00:34.382Z,20.34
2022-10-18T13:03:12.623Z,20.24
2022-10-18T13:05:53.378Z,20.15
2022-10-18T13:08:33.951Z,20.36
2022-10-18T13:11:12.287Z,20.22
2022-10-18T13:14:09.343Z,20.33
2022-10-18T13:16:48.953Z,20.29
2022-10-18T13:19:58.049Z,20.39
2022-10-18T13:22:58.607Z,20.20
2022-10-18T13:25:46.077Z,20.14
2022-10-18T13:28:35.613Z,19.98
2022-10-18T13:31:14.107Z,19.85
2022-10-18T13:33:44.021Z,19.94
2022-10-18T13:36:31.182Z,20.08
2022-10-18T13:39:02.706Z,20.12
2022-10-18T13:41:34.545Z,20.00
2022-10-18T13:44:02.111Z,19.96
2022-10-18T13:46:34.589Z,19.89
2022-10-18T13:49:25.368Z,19.91
2022-10-18T13:52:25.998Z,19.83
2022-10-18T13:55:17.394Z,19.63
2022-10-18T13:57:43.878Z,19.44
2022-10-18T14:00:15.770Z,19.40
2022-10-18T14:03:56.179Z,19.51
2022-10-18T14:06:51.783Z,19.11
2022-10-18T14:09:55.671Z,18.70
2022-10-18T14:12:58.319Z,19.08
2022-10-18T14:15:33.838Z,18.98
2022-10-18T14:18:15.387Z,18.85
2022-10-18T14:21:12.734Z,18.75
2022-10-18T14:23:49.645Z,18.51
2022-10-18T14:26:22.878Z,18.61
2022-10-18T14:29:23.398Z,18.60
2022-10-18T14:31:54.458Z,18.55
2022-10-18T14:34:34.333Z,18.68
2022-10-18T14:37:31.382Z,18.58
2022-10-18T14:40:28.284Z,18.40
2022-10-18T14:42:54.776Z,18.45
2022-10-18T14:45:29.406Z,18.25
2022-10-18T14:48:21.602Z,18.21
2022-10-18T14:51:03.491Z,18.16
2022-10-18T14:53:37.416Z,18.01
2022-10-18T14:56:05.164Z,17.93
2022-10-18T14:58:37.996Z,17.97
2022-10-18T15:01:05.179Z,17.89
2022-10-18T15:03:35.983Z,17.92
2022-10-18T15:06:10.591Z,17.70
2022-10-18T15:08:41.661Z,17.71
2022-10-18T15:11:13.293Z,17.82
2022-10-18T15:14:24.146Z,17.66
2022-10-18T15:16:59.023Z,17.53
2022-10-18T15:19:44.128Z,17.57
2022-10-18T15:22:32.337Z,17.37
2022-10-18T15:25:15.314Z,17.33
2022-10-18T15:27:47.652Z,17.32
2022-10-18T15:30:22.306Z,17.37
2022-10-18T15:32:53.950Z,17.14
2022-10-18T15:35:29.094Z,17.08
2022-10-18T15:38:14.205Z,16.94
2022-10-18T15:40:43.824Z,17.07
2022-10-18T15:43:30.657Z,16.81
2022-10-18T15:46:06.403Z,16.56
2022-10-18T15:48:41.285Z,16.53
2022-10-18T15:51:20.280Z,16.45
2022-10-18T15:53:49.974Z,16.27
2022-10-18T15:56:30.580Z,15.98
2022-10-18T15:58:59.490Z,15.78
2022-10-18T16:01:32.519Z,15.68
2022-10-18T16:04:00.253Z,15.60
2022-10-18T16:06:26.784Z,15.52
2022-10-18T16:08:53.767Z,15.46
2022-10-18T16:11:25.414Z,15.52
2022-10-18T16:13:57.863Z,15.87
2022-10-18T16:16:29.041Z,16.13
2022-10-18T16:18:59.110Z,16.18
2022-10-18T16:21:27.505Z,15.93
2022-10-18T16:23:54.611Z,15.64
2022-10-18T16:26:24.650Z,15.30
2022-10-18T16:28:52.298Z,15.18
2022-10-18T16:31:22.167Z,15.42
2022-10-18T16:33:49.713Z,15.42
2022-10-18T16:36:22.408Z,15.33
2022-10-18T16:38:49.963Z,15.68
2022-10-18T16:41:16.836Z,15.88
2022-10-18T16:43:48.317Z,15.90
2022-10-18T16:46:37.378Z,15.80
2022-10-18T16:49:17.103Z,15.74
2022-10-18T16:51:46.196Z,15.91
2022-10-18T16:54:12.731Z,16.08
2022-10-18T16:56:41.695Z,16.16
2022-10-18T16:59:16.102Z,16.19
2022-10-18T17:01:45.411Z,16.10
2022-10-18T17:04:16.794Z,16.06
2022-10-18T17:06:43.555Z,16.20
2022-10-18T17:09:14.268Z,16.31
2022-10-18T17:11:43.229Z,15.95
2022-10-18T17:14:09.752Z,16.01
2022-10-18T17:16:39.092Z,16.30
2022-10-18T17:19:10.600Z,16.32
2022-10-18T17:21:37.650Z,15.87
2022-10-18T17:24:18.641Z,15.88
2022-10-18T17:26:47.628Z,16.00
2022-10-18T17:29:14.228Z,15.76
2022-10-18T17:31:40.941Z,15.58
2022-10-18T17:34:16.452Z,15.67
2022-10-18T17:39:32.994Z,15.37
2022-10-18T17:42:05.137Z,15.13
2022-10-18T17:44:31.700Z,15.02
2022-10-18T17:47:11.204Z,14.84
2022-10-18T17:49:52.506Z,14.67
2022-10-18T17:52:35.080Z,14.79
2022-10-18T17:55:30.118Z,15.00
2022-10-18T17:58:02.757Z,14.78
2022-10-18T18:00:48.812Z,15.13
2022-10-18T18:03:18.003Z,15.30
2022-10-18T18:05:47.509Z,15.47
2022-10-18T18:08:15.015Z,15.51
2022-10-18T18:10:42.030Z,15.44
2022-10-18T18:13:09.071Z,15.38
2022-10-18T18:19:05.068Z,15.68
2022-10-18T18:24:41.084Z,15.70
2022-10-18T18:27:31.661Z,15.42
2022-10-18T18:30:00.269Z,15.28
2022-10-18T18:32:29.284Z,15.44
2022-10-18T18:34:58.451Z,15.55
2022-10-18T18:37:27.571Z,15.52
2022-10-18T18:42:41.145Z,15.09
2022-10-18T18:45:10.674Z,14.94
2022-10-18T18:47:41.486Z,14.53
2022-10-18T18:50:11.048Z,14.17
2022-10-18T18:52:37.616Z,14.50
2022-10-18T18:55:07.301Z,14.56
2022-10-18T18:57:34.015Z,14.61
2022-10-18T19:00:04.578Z,14.13
2022-10-18T19:02:31.044Z,13.99
2022-10-18T19:05:00.045Z,13.76
2022-10-18T19:07:28.922Z,13.79
2022-10-18T19:09:55.416Z,13.98
2022-10-18T19:12:24.483Z,13.94
2022-10-18T19:14:51.030Z,13.34
2022-10-18T19:17:17.661Z,13.18
2022-10-18T19:19:44.244Z,13.14
2022-10-18T19:22:11.140Z,13.38
2022-10-18T19:24:37.708Z,13.32
2022-10-18T19:27:09.617Z,13.58
2022-10-18T19:29:46.062Z,13.70
2022-10-18T19:32:13.390Z,13.77
2022-10-18T19:34:40.462Z,13.80
2022-10-18T19:37:09.382Z,13.42
2022-10-18T19:39:51.337Z,13.06
2022-10-18T19:42:27.481Z,12.81
2022-10-18T19:45:08.764Z,12.82
2022-10-18T19:47:41.159Z,13.05
2022-10-18T19:50:12.567Z,13.13
2022-10-18T19:52:42.096Z,13.23
2022-10-18T19:58:00.547Z,13.55
2022-10-18T20:00:52.190Z,13.08
2022-10-18T20:03:24.578Z,12.76
2022-10-18T20:06:03.376Z,13.11
2022-10-18T20:09:05.301Z,13.38
2022-10-18T20:11:31.909Z,13.36
2022-10-18T20:13:59.680Z,12.92
2022-10-18T20:16:31.356Z,12.82
2022-10-18T20:19:05.089Z,13.01
2022-10-18T20:21:35.920Z,13.16
2022-10-18T20:24:09.757Z,13.02
2022-10-18T20:26:39.576Z,12.58
2022-10-18T20:29:08.798Z,12.87
2022-10-18T20:31:38.484Z,12.89
2022-10-18T20:34:11.645Z,12.98
2022-10-18T20:36:38.602Z,12.51
2022-10-18T20:39:06.777Z,12.13
2022-10-18T20:41:41.069Z,12.57
2022-10-18T20:44:12.107Z,12.75
2022-10-18T20:46:39.549Z,12.83
2022-10-18T20:49:11.599Z,12.79
2022-10-18T20:51:40.547Z,12.55
2022-10-18T20:54:07.887Z,12.37
2022-10-18T20:56:36.557Z,12.43
2022-10-18T20:59:10.586Z,12.23
2022-10-18T21:01:38.950Z,12.04
2022-10-18T21:04:08.215Z,12.28
2022-10-18T21:06:44.715Z,12.13
2022-10-18T21:09:18.819Z,12.13
2022-10-18T21:11:50.113Z,12.29
2022-10-18T21:14:19.017Z,12.45
2022-10-18T21:16:53.397Z,12.54
2022-10-18T21:19:24.237Z,12.42
2022-10-18T21:21:54.349Z,12.06
2022-10-18T21:24:24.879Z,12.20
2022-10-18T21:26:54.584Z,12.00
2022-10-18T21:29:24.613Z,12.27
2022-10-18T21:31:55.038Z,12.19
2022-10-18T21:34:26.059Z,12.34
2022-10-18T21:36:52.625Z,12.25
2022-10-18T21:41:51.691Z,11.94
2022-10-18T21:44:18.534Z,11.99
2022-10-18T21:46:46.657Z,11.97
2022-10-18T21:49:14.139Z,12.10
2022-10-18T21:51:41.127Z,11.89
2022-10-18T21:54:14.401Z,11.76
2022-10-18T21:56:41.214Z,12.08
2022-10-18T21:59:10.572Z,12.23
2022-10-18T22:01:38.799Z,12.20
2022-10-18T22:04:08.126Z,12.41
2022-10-18T22:06:38.474Z,12.39
2022-10-18T22:09:08.298Z,12.31
2022-10-18T22:11:39.012Z,12.25
2022-10-18T22:14:05.721Z,12.24
2022-10-18T22:16:32.514Z,12.41
2022-10-18T22:19:02.552Z,12.49
2022-10-18T22:21:32.037Z,12.45
2022-10-18T22:23:59.274Z,12.02
2022-10-18T22:26:34.164Z,12.12
2022-10-18T22:29:03.875Z,12.41
2022-10-18T22:31:35.850Z,12.34
2022-10-18T22:34:10.433Z,12.30
2022-10-18T22:36:37.163Z,12.40
2022-10-18T22:39:05.533Z,12.55
2022-10-18T22:41:33.488Z,12.69
2022-10-18T22:44:03.652Z,12.82
2022-10-18T22:46:34.263Z,12.59
2022-10-18T22:49:00.962Z,12.37
2022-10-18T22:51:27.515Z,12.64
2022-10-18T22:53:54.305Z,12.78
2022-10-18T22:56:23.839Z,12.83
2022-10-18T22:58:52.847Z,12.87
2022-10-18T23:01:20.823Z,12.62
2022-10-18T23:03:54.684Z,12.13
2022-10-18T23:06:35.221Z,12.07
2022-10-18T23:09:07.021Z,11.65
2022-10-18T23:11:36.359Z,12.02
2022-10-18T23:14:09.202Z,11.62
2022-10-18T23:16:35.966Z,11.55
2022-10-18T23:19:04.869Z,11.62
2022-10-18T23:21:33.624Z,12.13
2022-10-18T23:24:00.119Z,12.16
2022-10-18T23:26:27.855Z,11.97
2022-10-18T23:28:55.239Z,12.19
2022-10-18T23:31:27.147Z,12.10
2022-10-18T23:33:58.396Z,12.34
2022-10-18T23:36:28.769Z,12.48
2022-10-18T23:38:58.492Z,12.62
2022-10-18T23:41:27.470Z,12.10
2022-10-18T23:43:56.766Z,11.88
2022-10-18T23:46:25.525Z,11.62
2022-10-18T23:48:54.668Z,11.86
2022-10-18T23:51:23.352Z,11.64
2022-10-18T23:53:52.459Z,11.67
2022-10-18T23:56:23.955Z,11.92
2022-10-18T23:58:53.150Z,12.21
